createdAt,value
2017-09-15T00:01:37.391Z,99998.88
2017-09-15T00:04:05.297Z,99999.05
2017-09-15T00:06:32.926Z,100004.61
2017-09-15T00:09:00.532Z,100005.73
2017-09-15T00:11:28.125Z,100006.87
2017-09-15T00:13:55.736Z,100007.59
2017-09-15T00:16:23.332Z,100011.50
2017-09-15T00:18:50.923Z,100022.30
2017-09-15T00:21:18.535Z,100023.63
2017-09-15T00:23:46.109Z,100026.28
2017-09-15T00:26:13.720Z,100032.67
2017-09-15T00:28:41.297Z,100028.86
2017-09-15T00:31:08.884Z,100024.98
2017-09-15T00:33:36.500Z,100030.74
2017-09-15T00:36:04.074Z,100040.59
2017-09-15T00:38:31.767Z,100038.87
2017-09-15T00:40:59.347Z,100046.25
2017-09-15T00:43:26.935Z,100053.34
2017-09-15T00:45:54.552Z,100064.56
2017-09-15T00:48:22.158Z,100063.30
2017-09-15T00:50:49.800Z,100065.16
2017-09-15T00:53:17.462Z,100068.77
2017-09-15T00:55:45.049Z,100072.59
2017-09-15T00:58:12.692Z,100081.36
2017-09-15T01:00:40.282Z,100076.70
2017-09-15T01:03:07.903Z,100084.80
2017-09-15T01:05:35.480Z,100087.77
2017-09-15T01:08:03.088Z,100089.31
2017-09-15T01:10:30.695Z,100093.56
2017-09-15T01:12:58.349Z,100092.17
2017-09-15T01:15:25.971Z,100091.14
2017-09-15T01:17:53.557Z,100098.96
2017-09-15T01:20:21.144Z,100101.26
2017-09-15T01:22:48.768Z,100105.59
2017-09-15T01:25:16.348Z,100111.03
2017-09-15T01:27:43.987Z,100106.30
2017-09-15T01:30:11.873Z,100113.19
2017-09-15T01:32:39.540Z,100121.58
2017-09-15T01:35:07.157Z,100124.56
2017-09-15T01:37:34.751Z,100127.63
2017-09-15T01:40:02.632Z,100132.69
2017-09-15T01:42:30.208Z,100140.09
2017-09-15T01:44:57.788Z,100146.88
2017-09-15T01:47:25.403Z,100151.41
2017-09-15T01:49:52.988Z,100152.61
2017-09-15T01:52:20.629Z,100166.02
2017-09-15T01:54:48.203Z,100164.02
2017-09-15T01:57:15.784Z,100153.77
2017-09-15T01:59:43.394Z,100154.94
2017-09-15T02:02:11.285Z,100161.08
2017-09-15T02:04:38.916Z,100163.27
2017-09-15T02:07:06.504Z,100163.78
2017-09-15T02:09:34.082Z,100166.11
2017-09-15T02:12:01.689Z,100169.52
2017-09-15T02:14:29.278Z,100172.63
2017-09-15T02:16:56.891Z,100181.17
2017-09-15T02:19:24.486Z,100189.19
2017-09-15T02:21:52.067Z,100185.40
2017-09-15T02:24:19.678Z,100197.67
2017-09-15T02:26:47.273Z,100193.88
2017-09-15T02:29:15.167Z,100203.67
2017-09-15T02:31:42.780Z,100208.08
2017-09-15T02:34:10.362Z,100203.77
2017-09-15T02:36:38.260Z,100209.84
2017-09-15T02:39:05.854Z,100211.41
2017-09-15T02:41:33.467Z,100216.23
2017-09-15T02:44:01.056Z,100222.61
2017-09-15T02:46:28.649Z,100226.84
2017-09-15T02:48:56.313Z,100233.77
2017-09-15T02:51:23.898Z,100237.97
2017-09-15T02:53:51.529Z,100246.22
2017-09-15T02:56:19.115Z,100251.47
2017-09-15T02:58:46.705Z,100256.30
2017-09-15T03:01:14.320Z,100256.62
2017-09-15T03:03:41.907Z,100269.98
2017-09-15T03:06:09.544Z,100260.85
2017-09-15T03:08:37.132Z,100260.86
2017-09-15T03:11:04.834Z,100266.42
2017-09-15T03:13:32.448Z,100270.84
2017-09-15T03:16:00.031Z,100269.39
2017-09-15T03:18:27.679Z,100279.48
2017-09-15T03:20:55.269Z,100279.70
2017-09-15T03:23:22.863Z,100286.48
2017-09-15T03:25:50.471Z,100284.10
2017-09-15T03:28:18.051Z,100292.34
2017-09-15T03:30:45.672Z,100295.96
2017-09-15T03:33:13.255Z,100309.64
2017-09-15T03:35:40.870Z,100300.79
2017-09-15T03:38:08.497Z,100302.88
2017-09-15T03:40:36.072Z,100307.59
2017-09-15T03:43:03.679Z,100307.28
2017-09-15T03:45:31.270Z,100316.55
2017-09-15T03:47:58.851Z,100308.73
2017-09-15T03:50:26.460Z,100308.03
2017-09-15T03:52:54.044Z,100304.83
2017-09-15T03:55:21.672Z,100303.91
2017-09-15T03:57:49.252Z,100315.53
2017-09-15T04:00:16.840Z,100312.14
2017-09-15T04:02:44.733Z,100315.02
2017-09-15T04:05:12.320Z,100319.95
2017-09-15T04:07:39.948Z,100331.08
2017-09-15T04:10:07.553Z,100330.66
2017-09-15T04:12:35.135Z,100329.86
2017-09-15T04:15:02.758Z,100340.56
2017-09-15T04:17:30.363Z,100342.11
2017-09-15T04:19:57.982Z,100354.09
2017-09-15T04:22:25.651Z,100351.51
2017-09-15T04:24:53.260Z,100360.16
2017-09-15T04:27:20.887Z,100362.12
2017-09-15T04:29:48.510Z,100364.80
2017-09-15T04:32:16.382Z,100373.24
2017-09-15T04:34:43.984Z,100368.16
2017-09-15T04:37:11.572Z,100379.69
2017-09-15T04:39:39.374Z,100384.95
2017-09-15T04:42:06.953Z,100384.84
2017-09-15T04:44:34.580Z,100389.37
2017-09-15T04:47:02.168Z,100395.33
2017-09-15T04:49:29.752Z,100393.08
2017-09-15T04:51:57.686Z,100401.12
2017-09-15T04:54:25.657Z,100403.27
2017-09-15T04:56:53.295Z,100403.56
2017-09-15T04:59:20.883Z,100405.84
2017-09-15T05:01:48.467Z,100418.84
2017-09-15T05:04:16.095Z,100418.23
2017-09-15T05:06:43.684Z,100423.25
2017-09-15T05:09:11.420Z,100424.52
2017-09-15T05:11:39.019Z,100431.08
2017-09-15T05:14:06.628Z,100442.59
2017-09-15T05:16:34.527Z,100439.72
2017-09-15T05:19:02.100Z,100442.43
2017-09-15T05:21:29.725Z,100454.26
2017-09-15T05:23:57.332Z,100455.56
2017-09-15T05:26:24.945Z,100462.51
2017-09-15T05:28:52.559Z,100476.09
2017-09-15T05:31:20.143Z,100469.42
2017-09-15T05:33:47.967Z,100470.38
2017-09-15T05:36:15.596Z,100468.41
2017-09-15T05:38:43.228Z,100477.17
2017-09-15T05:41:10.820Z,100482.33
2017-09-15T05:43:38.445Z,100477.60
2017-09-15T05:46:06.055Z,100487.09
2017-09-15T05:48:33.682Z,100482.19
2017-09-15T05:51:01.270Z,100488.51
2017-09-15T05:53:28.970Z,100490.77
2017-09-15T05:55:56.935Z,100504.89
2017-09-15T05:58:24.527Z,100510.56
2017-09-15T06:00:52.161Z,100517.87
2017-09-15T06:03:19.749Z,100524.88
2017-09-15T06:05:47.326Z,100522.74
2017-09-15T06:08:14.939Z,100519.14
2017-09-15T06:10:42.532Z,100524.21
2017-09-15T06:13:10.174Z,100528.55
2017-09-15T06:15:37.834Z,100545.95
2017-09-15T06:18:05.411Z,100539.67
2017-09-15T06:20:33.032Z,100549.27
2017-09-15T06:23:00.652Z,100557.41
2017-09-15T06:25:28.572Z,100553.31
2017-09-15T06:27:56.156Z,100560.02
2017-09-15T06:30:23.759Z,100569.48
2017-09-15T06:32:52.109Z,100571.02
2017-09-15T06:35:25.018Z,100564.70
2017-09-15T06:37:52.642Z,100570.59
2017-09-15T06:40:20.236Z,100576.39
2017-09-15T06:42:47.824Z,100573.69
2017-09-15T06:45:15.476Z,100587.02
2017-09-15T06:47:43.089Z,100587.19
2017-09-15T06:50:10.713Z,100585.38
2017-09-15T06:52:38.307Z,100593.86
2017-09-15T06:55:05.966Z,100585.53
2017-09-15T06:57:33.576Z,100588.82
2017-09-15T07:00:01.199Z,100592.35
2017-09-15T07:02:28.937Z,100592.50
2017-09-15T07:04:56.528Z,100592.44
2017-09-15T07:07:24.131Z,100598.86
2017-09-15T07:09:51.740Z,100597.61
2017-09-15T07:12:19.603Z,100614.97
2017-09-15T07:14:47.239Z,100605.25
2017-09-15T07:17:14.824Z,100615.71
2017-09-15T07:19:42.404Z,100623.13
2017-09-15T07:22:11.583Z,100619.42
2017-09-15T07:24:39.216Z,100625.84
2017-09-15T07:27:06.853Z,100637.09
2017-09-15T07:29:34.461Z,100637.42
2017-09-15T07:32:02.160Z,100633.70
2017-09-15T07:34:29.862Z,100642.08
2017-09-15T07:36:57.444Z,100649.70
2017-09-15T07:39:25.073Z,100652.28
2017-09-15T07:41:52.659Z,100658.86
2017-09-15T07:44:20.240Z,100666.25
2017-09-15T07:46:47.867Z,100665.91
2017-09-15T07:49:15.459Z,100670.67
2017-09-15T07:51:43.088Z,100682.96
2017-09-15T07:54:10.700Z,100676.36
2017-09-15T07:56:38.279Z,100682.25
2017-09-15T07:59:05.889Z,100681.43
2017-09-15T08:01:33.782Z,100684.30
2017-09-15T08:04:01.407Z,100689.94
2017-09-15T08:06:29.261Z,100686.62
2017-09-15T08:08:56.851Z,100692.84
2017-09-15T08:11:24.465Z,100686.96
2017-09-15T08:13:52.043Z,100694.10
2017-09-15T08:16:19.683Z,100689.77
2017-09-15T08:18:47.258Z,100691.81
2017-09-15T08:21:14.838Z,100703.48
2017-09-15T08:23:42.459Z,100700.38
2017-09-15T08:26:10.048Z,100706.38
2017-09-15T08:28:37.662Z,100700.69
2017-09-15T08:31:05.241Z,100706.59
2017-09-15T08:33:32.815Z,100704.33
2017-09-15T08:36:00.416Z,100710.31
2017-09-15T08:38:28.324Z,100706.47
2017-09-15T08:40:56.291Z,100702.44
2017-09-15T08:43:23.876Z,100708.84
2017-09-15T08:45:51.487Z,100711.58
2017-09-15T08:48:19.108Z,100710.98
2017-09-15T08:50:46.692Z,100715.78
2017-09-15T08:53:14.326Z,100725.00
2017-09-15T08:55:41.981Z,100719.51
2017-09-15T08:58:09.556Z,100718.47
2017-09-15T09:00:37.472Z,100714.48
2017-09-15T09:03:05.052Z,100706.44
2017-09-15T09:05:32.815Z,100711.06
2017-09-15T09:08:00.411Z,100707.09
2017-09-15T09:10:27.993Z,100703.34
2017-09-15T09:12:55.617Z,100707.97
2017-09-15T09:15:23.195Z,100704.97
2017-09-15T09:17:50.825Z,100713.06
2017-09-15T09:20:18.553Z,100724.51
2017-09-15T09:22:46.155Z,100724.63
2017-09-15T09:25:14.030Z,100721.41
2017-09-15T09:27:41.616Z,100718.00
2017-09-15T09:30:09.241Z,100717.91
2017-09-15T09:32:36.836Z,100711.02
2017-09-15T09:35:04.425Z,100722.67
2017-09-15T09:37:32.041Z,100720.52
2017-09-15T09:39:59.624Z,100725.03
2017-09-15T09:42:27.286Z,100717.92
2017-09-15T09:44:55.105Z,100721.28
2017-09-15T09:47:22.677Z,100722.74
2017-09-15T09:49:50.345Z,100722.48
2017-09-15T09:52:17.920Z,100733.14
2017-09-15T09:54:45.546Z,100726.48
2017-09-15T09:57:13.129Z,100732.24
2017-09-15T09:59:41.001Z,100722.34
2017-09-15T10:02:08.611Z,100717.83
2017-09-15T10:04:36.192Z,100706.33
2017-09-15T10:07:03.813Z,100707.63
2017-09-15T10:09:31.412Z,100705.70
2017-09-15T10:11:59.808Z,100708.03
2017-09-15T10:14:27.407Z,100717.86
2017-09-15T10:16:55.034Z,100726.77
2017-09-15T10:19:22.668Z,100723.20
2017-09-15T10:21:50.237Z,100718.69
2017-09-15T10:24:17.820Z,100722.50
2017-09-15T10:26:45.492Z,100717.09
2017-09-15T10:29:13.092Z,100717.11
2017-09-15T10:31:41.043Z,100723.41
2017-09-15T10:34:08.641Z,100715.12
2017-09-15T10:36:36.562Z,100721.98
2017-09-15T10:39:04.169Z,100710.96
2017-09-15T10:41:31.743Z,100730.81
2017-09-15T10:43:59.384Z,100720.24
2017-09-15T10:46:27.214Z,100717.92
2017-09-15T10:48:55.087Z,100729.73
2017-09-15T10:51:22.956Z,100725.53
2017-09-15T10:53:50.534Z,100723.88
2017-09-15T10:56:18.141Z,100728.84
2017-09-15T10:58:51.572Z,100732.88
2017-09-15T11:01:19.184Z,100725.48
2017-09-15T11:03:46.769Z,100726.83
2017-09-15T11:06:14.369Z,100725.03
2017-09-15T11:08:41.963Z,100730.56
2017-09-15T11:11:09.572Z,100730.00
2017-09-15T11:13:37.575Z,100725.63
2017-09-15T11:16:05.143Z,100727.03
2017-09-15T11:18:32.728Z,100722.90
2017-09-15T11:21:00.408Z,100725.75
2017-09-15T11:23:28.079Z,100726.61
2017-09-15T11:25:55.715Z,100728.50
2017-09-15T11:28:23.748Z,100730.87
2017-09-15T11:30:51.360Z,100733.14
2017-09-15T11:33:18.969Z,100736.88
2017-09-15T11:35:46.838Z,100730.69
2017-09-15T11:38:14.479Z,100731.93
2017-09-15T11:40:42.053Z,100731.75
2017-09-15T11:43:09.644Z,100725.63
2017-09-15T11:45:37.278Z,100726.50
2017-09-15T11:48:05.801Z,100724.27
2017-09-15T11:50:33.418Z,100726.25
2017-09-15T11:53:01.008Z,100720.28
2017-09-15T11:55:28.843Z,100720.98
2017-09-15T11:57:56.464Z,100719.11
2017-09-15T12:00:24.376Z,100722.77
2017-09-15T12:02:51.950Z,100723.70
2017-09-15T12:05:19.576Z,100709.72
2017-09-15T12:07:47.162Z,100712.70
2017-09-15T12:10:14.729Z,100713.69
2017-09-15T12:12:42.587Z,100712.97
2017-09-15T12:15:10.454Z,100708.92
2017-09-15T12:17:38.352Z,100711.10
2017-09-15T12:20:06.196Z,100713.30
2017-09-15T12:22:33.781Z,100702.03
2017-09-15T12:25:01.404Z,100691.09
2017-09-15T12:27:28.998Z,100700.85
2017-09-15T12:29:56.692Z,100699.12
2017-09-15T12:32:24.280Z,100695.59
2017-09-15T12:34:51.883Z,100690.02
2017-09-15T12:37:19.840Z,100694.06
2017-09-15T12:39:47.422Z,100687.41
2017-09-15T12:42:15.036Z,100692.95
2017-09-15T12:44:42.640Z,100692.30
2017-09-15T12:47:10.294Z,100689.31
2017-09-15T12:49:37.903Z,100692.16
2017-09-15T12:52:05.487Z,100690.48
2017-09-15T12:54:33.148Z,100689.70
2017-09-15T12:57:00.821Z,100680.39
2017-09-15T12:59:28.445Z,100675.30
2017-09-15T13:01:56.075Z,100675.16
2017-09-15T13:04:23.670Z,100672.56
2017-09-15T13:06:51.291Z,100677.98
2017-09-15T13:09:19.278Z,100671.88
2017-09-15T13:11:46.858Z,100668.33
2017-09-15T13:14:14.482Z,100675.09
2017-09-15T13:16:42.071Z,100669.72
2017-09-15T13:19:09.704Z,100672.36
2017-09-15T13:21:37.311Z,100670.14
2017-09-15T13:24:05.228Z,100664.90
2017-09-15T13:26:32.829Z,100667.05
2017-09-15T13:29:00.419Z,100659.77
2017-09-15T13:31:28.062Z,100662.70
2017-09-15T13:33:55.657Z,100661.80
2017-09-15T13:36:23.540Z,100663.94
2017-09-15T13:38:51.155Z,100659.02
2017-09-15T13:41:18.983Z,100655.02
2017-09-15T13:43:46.593Z,100648.02
2017-09-15T13:46:14.176Z,100658.50
2017-09-15T13:48:41.770Z,100657.94
2017-09-15T13:51:09.433Z,100657.23
2017-09-15T13:53:37.011Z,100653.80
2017-09-15T13:56:04.667Z,100659.39
2017-09-15T13:58:32.308Z,100652.26
2017-09-15T14:00:59.891Z,100654.23
2017-09-15T14:03:27.834Z,100662.14
2017-09-15T14:05:55.448Z,100663.27
2017-09-15T14:08:23.068Z,100660.95
2017-09-15T14:10:50.936Z,100658.02
2017-09-15T14:13:18.813Z,100659.16
2017-09-15T14:15:46.468Z,100659.89
2017-09-15T14:18:14.039Z,100662.62
2017-09-15T14:20:41.666Z,100672.08
2017-09-15T14:23:09.247Z,100677.10
2017-09-15T14:25:37.113Z,100681.28
2017-09-15T14:28:04.720Z,100685.92
2017-09-15T14:30:32.300Z,100688.83
2017-09-15T14:32:59.927Z,100690.84
2017-09-15T14:35:27.522Z,100694.40
2017-09-15T14:37:55.099Z,100696.55
2017-09-15T14:40:22.710Z,100690.58
2017-09-15T14:42:51.471Z,100686.18
2017-09-15T14:45:19.084Z,100678.14
2017-09-15T14:47:47.005Z,100674.97
2017-09-15T14:50:14.870Z,100673.06
2017-09-15T14:52:42.471Z,100668.86
2017-09-15T14:55:10.053Z,100664.76
2017-09-15T14:57:37.666Z,100661.51
2017-09-15T15:00:05.240Z,100658.61
2017-09-15T15:02:32.832Z,100651.81
2017-09-15T15:05:00.745Z,100647.00
2017-09-15T15:07:28.323Z,100647.53
2017-09-15T15:09:55.948Z,100641.18
2017-09-15T15:12:23.517Z,100637.60
2017-09-15T15:14:51.091Z,100637.53
2017-09-15T15:17:18.716Z,100638.05
2017-09-15T15:19:46.285Z,100638.77
2017-09-15T15:22:13.895Z,100633.73
2017-09-15T15:24:41.474Z,100628.97
2017-09-15T15:27:09.072Z,100632.42
2017-09-15T15:29:36.962Z,100624.66
2017-09-15T15:32:04.572Z,100622.75
2017-09-15T15:34:32.206Z,100621.97
2017-09-15T15:37:00.057Z,100626.22
2017-09-15T15:39:27.628Z,100628.27
2017-09-15T15:41:55.536Z,100625.62
2017-09-15T15:44:23.112Z,100623.56
2017-09-15T15:46:51.344Z,100621.97
2017-09-15T15:49:18.912Z,100627.97
2017-09-15T15:51:46.487Z,100631.37
2017-09-15T15:54:14.132Z,100625.67
2017-09-15T15:56:41.709Z,100624.23
2017-09-15T15:59:09.639Z,100629.27
2017-09-15T16:01:37.236Z,100619.67
2017-09-15T16:04:05.103Z,100619.98
2017-09-15T16:06:32.946Z,100622.37
2017-09-15T16:09:00.543Z,100611.50
2017-09-15T16:11:28.166Z,100608.45
2017-09-15T16:13:55.732Z,100610.42
2017-09-15T16:16:23.343Z,100609.80
2017-09-15T16:18:50.955Z,100608.98
2017-09-15T16:21:18.551Z,100613.36
2017-09-15T16:23:46.170Z,100619.63
2017-09-15T16:26:15.726Z,100613.02
2017-09-15T16:28:43.606Z,100616.53
2017-09-15T16:31:12.051Z,100616.37
2017-09-15T16:33:39.628Z,100616.32
2017-09-15T16:36:07.252Z,100613.32
2017-09-15T16:38:40.458Z,100618.02
2017-09-15T16:41:13.611Z,100615.57
2017-09-15T16:43:46.803Z,100612.89
2017-09-15T16:46:20.022Z,100614.74
2017-09-15T16:48:53.140Z,100617.71
2017-09-15T16:51:20.756Z,100614.44
2017-09-15T16:53:48.359Z,100617.03
2017-09-15T16:56:16.209Z,100618.51
2017-09-15T16:58:44.124Z,100618.30
2017-09-15T17:01:11.721Z,100619.75
2017-09-15T17:03:39.346Z,100617.45
2017-09-15T17:06:06.932Z,100620.96
2017-09-15T17:08:34.516Z,100622.10
2017-09-15T17:11:02.142Z,100625.72
2017-09-15T17:13:29.716Z,100621.30
2017-09-15T17:15:57.323Z,100619.96
2017-09-15T17:18:24.918Z,100622.10
2017-09-15T17:20:52.531Z,100619.55
2017-09-15T17:23:20.170Z,100624.69
2017-09-15T17:25:47.919Z,100624.61
2017-09-15T17:28:15.545Z,100626.38
2017-09-15T17:30:43.133Z,100632.67
2017-09-15T17:33:10.720Z,100631.54
2017-09-15T17:35:38.340Z,100636.42
2017-09-15T17:38:06.165Z,100632.80
2017-09-15T17:40:33.783Z,100633.14
2017-09-15T17:43:01.376Z,100635.73
2017-09-15T17:45:28.960Z,100639.03
2017-09-15T17:47:56.575Z,100643.27
2017-09-15T17:50:24.484Z,100646.89
2017-09-15T17:52:52.124Z,100649.78
2017-09-15T17:55:19.709Z,100650.02
2017-09-15T17:57:47.295Z,100654.13
2017-09-15T18:00:14.903Z,100651.13
2017-09-15T18:02:42.487Z,100656.01
2017-09-15T18:05:10.111Z,100659.62
2017-09-15T18:07:38.020Z,100658.17
2017-09-15T18:10:05.623Z,100661.39
2017-09-15T18:12:33.325Z,100663.67
2017-09-15T18:15:00.915Z,100658.61
2017-09-15T18:17:28.533Z,100666.88
2017-09-15T18:19:56.445Z,100657.05
2017-09-15T18:22:24.045Z,100661.09
2017-09-15T18:24:51.650Z,100660.25
2017-09-15T18:27:19.246Z,100660.47
2017-09-15T18:29:46.891Z,100665.85
2017-09-15T18:32:14.473Z,100669.47
2017-09-15T18:34:42.103Z,100668.84
2017-09-15T18:37:09.717Z,100667.81
2017-09-15T18:39:37.340Z,100669.65
2017-09-15T18:42:04.951Z,100665.75
2017-09-15T18:44:32.529Z,100663.99
2017-09-15T18:47:00.227Z,100666.37
2017-09-15T18:49:27.840Z,100663.87
2017-09-15T18:51:55.448Z,100665.14
2017-09-15T18:54:23.060Z,100669.67
2017-09-15T18:56:50.648Z,100658.64
2017-09-15T18:59:18.256Z,100661.42
2017-09-15T19:01:45.863Z,100663.09
2017-09-15T19:04:13.460Z,100661.86
2017-09-15T19:06:41.094Z,100662.05
2017-09-15T19:09:08.671Z,100665.36
2017-09-15T19:11:36.251Z,100657.02
2017-09-15T19:14:03.861Z,100666.91
2017-09-15T19:16:31.767Z,100664.97
2017-09-15T19:18:59.389Z,100662.27
2017-09-15T19:21:26.967Z,100662.38
2017-09-15T19:23:54.561Z,100656.91
2017-09-15T19:26:22.647Z,100658.67
2017-09-15T19:28:50.231Z,100653.38
2017-09-15T19:31:17.840Z,100656.58
2017-09-15T19:33:45.447Z,100648.06
2017-09-15T19:36:13.029Z,100657.37
2017-09-15T19:38:40.643Z,100658.53
2017-09-15T19:41:08.220Z,100661.72
2017-09-15T19:43:35.822Z,100657.95
2017-09-15T19:46:03.456Z,100657.76
2017-09-15T19:48:31.035Z,100654.45
2017-09-15T19:50:58.636Z,100661.48
2017-09-15T19:53:26.259Z,100652.48
2017-09-15T19:55:53.879Z,100655.47
2017-09-15T19:58:21.479Z,100656.80
2017-09-15T20:00:49.095Z,100651.42
2017-09-15T20:03:16.683Z,100657.00
2017-09-15T20:05:44.343Z,100661.92
2017-09-15T20:08:11.941Z,100665.98
2017-09-15T20:10:39.782Z,100661.13
2017-09-15T20:13:07.395Z,100664.82
2017-09-15T20:15:35.021Z,100665.42
2017-09-15T20:18:02.941Z,100664.70
2017-09-15T20:20:30.603Z,100663.77
2017-09-15T20:22:58.180Z,100656.11
2017-09-15T20:25:25.791Z,100658.38
2017-09-15T20:27:53.391Z,100652.08
2017-09-15T20:30:21.017Z,100654.85
2017-09-15T20:32:48.915Z,100659.80
2017-09-15T20:35:16.504Z,100657.53
2017-09-15T20:37:44.112Z,100655.91
2017-09-15T20:40:11.692Z,100658.97
2017-09-15T20:42:39.320Z,100661.78
2017-09-15T20:45:06.909Z,100666.41
2017-09-15T20:47:34.792Z,100661.97
2017-09-15T20:50:02.405Z,100657.95
2017-09-15T20:52:29.980Z,100662.69
2017-09-15T20:54:57.622Z,100661.41
2017-09-15T20:57:25.204Z,100657.27
2017-09-15T20:59:52.791Z,100663.47
2017-09-15T21:02:20.402Z,100666.12
2017-09-15T21:04:47.982Z,100668.16
2017-09-15T21:07:15.610Z,100668.70
2017-09-15T21:09:43.212Z,100665.19
2017-09-15T21:12:10.796Z,100668.06
2017-09-15T21:14:38.406Z,100664.85
2017-09-15T21:17:05.979Z,100672.98
2017-09-15T21:19:33.614Z,100678.70
2017-09-15T21:22:01.196Z,100680.87
2017-09-15T21:24:28.792Z,100689.55
2017-09-15T21:26:56.410Z,100686.67
2017-09-15T21:29:23.995Z,100685.63
2017-09-15T21:31:51.652Z,100686.00
2017-09-15T21:34:19.384Z,100683.52
2017-09-15T21:36:46.964Z,100683.93
2017-09-15T21:39:15.172Z,100686.32
2017-09-15T21:41:42.767Z,100681.16
2017-09-15T21:44:10.404Z,100675.66
2017-09-15T21:46:37.980Z,100668.61
2017-09-15T21:49:05.663Z,100670.17
2017-09-15T21:51:33.527Z,100673.97
2017-09-15T21:54:01.134Z,100672.81
2017-09-15T21:56:29.004Z,100670.33
2017-09-15T21:58:56.606Z,100664.47
2017-09-15T22:01:24.187Z,100662.67
2017-09-15T22:03:57.419Z,100657.69
2017-09-15T22:06:24.995Z,100649.11
2017-09-15T22:08:52.623Z,100649.20
2017-09-15T22:11:20.196Z,100644.91
2017-09-15T22:13:47.835Z,100639.48
2017-09-15T22:16:15.477Z,100636.04
2017-09-15T22:18:43.343Z,100638.20
2017-09-15T22:21:11.312Z,100633.61
2017-09-15T22:23:39.180Z,100634.05
2017-09-15T22:26:06.766Z,100631.56
2017-09-15T22:28:34.363Z,100631.28
2017-09-15T22:31:02.275Z,100628.00
2017-09-15T22:33:29.919Z,100625.30
2017-09-15T22:35:57.506Z,100626.34
2017-09-15T22:38:25.086Z,100628.90
2017-09-15T22:40:52.687Z,100628.39
2017-09-15T22:43:20.588Z,100633.45
2017-09-15T22:45:48.227Z,100627.27
2017-09-15T22:48:16.121Z,100628.80
2017-09-15T22:50:43.716Z,100631.39
2017-09-15T22:53:11.652Z,100633.87
2017-09-15T22:55:39.231Z,100647.23
2017-09-15T22:58:06.839Z,100650.20
2017-09-15T23:00:34.542Z,100650.58
2017-09-15T23:03:02.166Z,100651.66
2017-09-15T23:05:29.741Z,100645.07
2017-09-15T23:07:57.323Z,100648.11
2017-09-15T23:10:25.031Z,100641.61
2017-09-15T23:12:52.607Z,100645.30
2017-09-15T23:15:20.224Z,100644.56
2017-09-15T23:17:48.076Z,100645.72
2017-09-15T23:20:15.660Z,100654.47
2017-09-15T23:22:43.268Z,100659.61
2017-09-15T23:25:10.857Z,100656.33
2017-09-15T23:27:38.474Z,100664.23
2017-09-15T23:30:06.056Z,100654.34
2017-09-15T23:32:33.634Z,100657.77
2017-09-15T23:35:01.512Z,100661.55
2017-09-15T23:37:29.244Z,100661.28
2017-09-15T23:39:56.863Z,100658.64
2017-09-15T23:42:24.480Z,100665.55
2017-09-15T23:44:52.065Z,100665.59
2017-09-15T23:47:19.672Z,100668.31
2017-09-15T23:49:47.243Z,100669.32
2017-09-15T23:52:14.884Z,100668.77
2017-09-15T23:54:42.463Z,100660.65
2017-09-15T23:57:10.381Z,100665.31
2017-09-15T23:59:37.985Z,100667.81
